Time;durP1;ratioP1;P1;durP2;ratioP2;P2;SDS_P1;SDS_P2;PMS_P1;PMS_P2;Temp;Humidity;BMP_temperature;BMP_pressure;BME280_temperature;BME280_humidity;BME280_pressure;Samples;Min_cycle;Max_cycle;Signal;HPM_P1;HPM_P2
2023/08/20 00:00:22;;;;;;;10.60;8.90;;;;;;;20.70;91.34;98283.38;107311;1271;24269;-80
2023/08/20 00:03:12;;;;;;;9.30;8.00;;;;;;;20.68;91.30;98287.48;107332;1275;27186;-79
2023/08/20 00:05:40;;;;;;;9.90;7.80;;;;;;;20.69;91.39;98286.36;107389;1273;24277;-81
2023/08/20 00:08:08;;;;;;;8.80;7.80;;;;;;;20.75;91.88;98285.53;107260;1275;22527;-81
2023/08/20 00:10:36;;;;;;;9.00;7.50;;;;;;;20.79;91.66;98284.85;107335;1263;22573;-80
2023/08/20 00:13:04;;;;;;;9.00;8.20;;;;;;;20.83;91.80;98283.30;107374;1275;22516;-80
2023/08/20 00:15:33;;;;;;;8.60;7.80;;;;;;;20.84;91.78;98279.96;107411;1275;22575;-80
2023/08/20 00:18:01;;;;;;;10.40;9.30;;;;;;;20.78;91.61;98274.43;107353;1275;23159;-80
2023/08/20 00:20:29;;;;;;;9.20;8.40;;;;;;;20.69;91.61;98277.27;107190;1275;24420;-80
2023/08/20 00:22:58;;;;;;;9.80;8.50;;;;;;;20.58;91.99;98278.20;107347;1275;22554;-80
2023/08/20 00:25:26;;;;;;;11.00;8.40;;;;;;;20.49;92.34;98281.79;107388;1275;22517;-80
2023/08/20 00:27:54;;;;;;;9.50;8.20;;;;;;;20.41;92.42;98282.13;107149;1275;166097;-80
2023/08/20 00:30:22;;;;;;;9.30;8.40;;;;;;;20.41;92.55;98280.34;107329;1275;23003;-80
2023/08/20 00:32:50;;;;;;;9.60;8.70;;;;;;;20.46;92.62;98276.14;107365;1275;22630;-81
2023/08/20 00:35:18;;;;;;;9.20;7.90;;;;;;;20.50;92.64;98273.98;107149;1275;22547;-81
2023/08/20 00:37:46;;;;;;;9.30;8.30;;;;;;;20.53;92.75;98273.38;107240;1275;22549;-81
2023/08/20 00:40:14;;;;;;;8.90;8.10;;;;;;;20.51;92.80;98272.70;107219;1275;22538;-81
2023/08/20 00:42:42;;;;;;;10.40;8.80;;;;;;;20.44;93.10;98268.75;107265;1275;22510;-81
2023/08/20 00:45:10;;;;;;;11.00;9.50;;;;;;;20.37;93.08;98268.52;107138;1275;22551;-81
2023/08/20 00:47:40;;;;;;;10.90;9.90;;;;;;;20.29;92.96;98269.66;107315;1275;23057;-81
2023/08/20 00:50:09;;;;;;;10.50;9.50;;;;;;;20.23;93.06;98266.93;107323;1275;22652;-81
2023/08/20 00:52:38;;;;;;;10.50;9.50;;;;;;;20.20;93.11;98262.71;107395;1275;22591;-82
2023/08/20 00:55:11;;;;;;;11.90;9.60;;;;;;;20.16;93.34;98263.55;107253;1275;24353;-81
2023/08/20 00:57:40;;;;;;;10.40;9.20;;;;;;;20.12;93.65;98261.48;107264;1275;22682;-81
2023/08/20 01:00:10;;;;;;;10.20;8.40;;;;;;;20.10;93.80;98258.48;107546;1275;25503;-81
2023/08/20 01:02:40;;;;;;;10.00;8.70;;;;;;;20.07;93.95;98261.83;107471;1275;25164;-81
2023/08/20 01:05:11;;;;;;;9.10;8.30;;;;;;;20.07;93.89;98260.13;107247;1275;23934;-83
2023/08/20 01:08:04;;;;;;;8.50;7.70;;;;;;;20.12;94.39;98259.61;107428;1275;22533;-82
2023/08/20 01:10:52;;;;;;;8.80;8.00;;;;;;;20.22;94.59;98256.58;107439;1275;25540;-82
2023/08/20 01:13:20;;;;;;;8.90;8.00;;;;;;;20.33;94.51;98259.41;107487;1275;23798;-82
2023/08/20 01:15:49;;;;;;;10.10;9.10;;;;;;;20.38;94.50;98259.39;107301;1275;22535;-83
2023/08/20 01:18:17;;;;;;;12.40;9.50;;;;;;;20.40;94.37;98261.09;107398;1275;24221;-82
2023/08/20 01:20:51;;;;;;;9.10;8.20;;;;;;;20.42;94.41;98260.58;107361;1275;25292;-82
2023/08/20 01:24:18;;;;;;;10.60;9.60;;;;;;;20.42;94.37;98263.63;107366;1275;22626;-82
2023/08/20 01:27:14;;;;;;;11.10;8.50;;;;;;;20.42;94.51;98258.63;106628;1283;25195;-81
2023/08/20 01:29:42;;;;;;;9.70;8.70;;;;;;;20.42;94.52;98257.86;106691;1282;22650;-82
2023/08/20 01:32:12;;;;;;;10.50;9.40;;;;;;;20.42;94.53;98261.61;106748;1283;24402;-82
2023/08/20 01:34:40;;;;;;;10.90;9.90;;;;;;;20.39;94.53;98263.49;106794;1282;24418;-82
2023/08/20 01:37:08;;;;;;;12.30;9.90;;;;;;;20.33;95.24;98262.08;106808;1282;24382;-82
2023/08/20 01:39:36;;;;;;;11.50;10.00;;;;;;;20.24;95.30;98259.99;106768;1283;22713;-81
2023/08/20 01:42:06;;;;;;;11.60;10.50;;;;;;;20.17;95.18;98261.86;106794;1283;22715;-82
2023/08/20 01:44:34;;;;;;;10.40;9.40;;;;;;;20.10;95.27;98257.85;106735;1283;22580;-82
2023/08/20 01:47:02;;;;;;;11.10;10.00;;;;;;;20.06;95.49;98262.51;106662;1283;24335;-81
2023/08/20 01:49:30;;;;;;;12.40;9.50;;;;;;;20.04;95.42;98260.50;106732;1283;22743;-82
2023/08/20 01:51:58;;;;;;;10.40;9.30;;;;;;;20.02;95.44;98259.75;106641;1283;24231;-81
2023/08/20 01:54:26;;;;;;;11.10;9.10;;;;;;;20.00;95.30;98260.80;106634;1283;24217;-81
2023/08/20 01:56:54;;;;;;;10.20;9.00;;;;;;;20.02;95.58;98260.92;106672;1282;23637;-81
2023/08/20 01:59:23;;;;;;;10.20;9.10;;;;;;;20.09;95.94;98258.54;106725;1276;25366;-81
2023/08/20 02:01:51;;;;;;;9.30;8.30;;;;;;;20.18;95.71;98261.56;107159;1275;25599;-79
2023/08/20 02:04:19;;;;;;;11.10;9.70;;;;;;;20.22;95.60;98263.61;107171;1275;22528;-79
2023/08/20 02:06:47;;;;;;;10.20;9.30;;;;;;;20.16;94.94;98263.01;107318;1275;24386;-80
2023/08/20 02:09:16;;;;;;;10.90;9.60;;;;;;;20.06;94.92;98262.05;107164;1275;22508;-79
2023/08/20 02:11:44;;;;;;;10.30;9.30;;;;;;;19.97;95.11;98264.63;107275;1275;24365;-80
2023/08/20 02:14:12;;;;;;;10.50;9.10;;;;;;;19.90;95.20;98265.10;107485;1275;23373;-79
2023/08/20 02:16:40;;;;;;;10.90;9.90;;;;;;;19.87;95.36;98263.29;107318;1275;25220;-78
2023/08/20 02:19:09;;;;;;;12.40;9.40;;;;;;;19.86;95.69;98263.64;107313;1275;22536;-79
2023/08/20 02:21:37;;;;;;;11.40;9.90;;;;;;;19.83;95.95;98265.05;107187;1275;25332;-79
2023/08/20 02:24:05;;;;;;;10.80;9.70;;;;;;;19.81;96.24;98266.48;107228;1275;22740;-79
2023/08/20 02:26:33;;;;;;;10.60;9.50;;;;;;;19.84;96.39;98266.24;107286;1275;22525;-79
2023/08/20 02:29:02;;;;;;;10.50;8.90;;;;;;;19.90;96.60;98266.58;107297;1275;24376;-78
2023/08/20 02:31:30;;;;;;;11.10;10.00;;;;;;;19.92;96.26;98265.70;107361;1275;25488;-80
2023/08/20 02:33:58;;;;;;;10.70;9.60;;;;;;;19.91;96.22;98265.66;107337;1275;25388;-79
2023/08/20 02:36:26;;;;;;;10.90;9.90;;;;;;;19.93;96.27;98266.23;107243;1275;22776;-79
2023/08/20 02:38:54;;;;;;;10.70;9.60;;;;;;;19.94;96.38;98267.70;107259;1275;23316;-79
2023/08/20 02:41:22;;;;;;;11.70;9.40;;;;;;;19.95;96.29;98263.42;107294;1275;22694;-81
2023/08/20 02:43:50;;;;;;;10.90;9.90;;;;;;;19.92;95.64;98265.36;107340;1275;22636;-80
2023/08/20 02:46:18;;;;;;;10.50;9.40;;;;;;;19.83;95.50;98263.42;107372;1275;22679;-80
2023/08/20 02:48:46;;;;;;;12.10;10.30;;;;;;;19.82;95.93;98259.78;107317;1275;22745;-79
2023/08/20 02:51:14;;;;;;;11.30;10.10;;;;;;;19.78;95.31;98262.80;106762;1275;22960;-81
2023/08/20 02:53:42;;;;;;;11.20;10.10;;;;;;;19.71;95.33;98263.10;107203;1275;22527;-78
2023/08/20 02:56:10;;;;;;;11.80;10.70;;;;;;;19.58;95.11;98262.33;107401;1275;22527;-79
2023/08/20 02:58:38;;;;;;;11.90;10.70;;;;;;;19.49;95.58;98262.88;107371;1275;24373;-79
2023/08/20 03:01:06;;;;;;;10.90;10.00;;;;;;;19.47;95.96;98264.99;107273;1275;25261;-79
2023/08/20 03:03:34;;;;;;;10.60;9.50;;;;;;;19.44;96.04;98264.61;107199;1275;25137;-79
2023/08/20 03:06:02;;;;;;;11.70;10.50;;;;;;;19.44;96.16;98267.73;107158;1275;22568;-79
2023/08/20 03:08:30;;;;;;;10.70;9.70;;;;;;;19.44;96.40;98270.60;107278;1275;22748;-79
2023/08/20 03:10:59;;;;;;;12.00;10.80;;;;;;;19.43;96.43;98272.31;107235;1275;22558;-79
2023/08/20 03:13:27;;;;;;;11.20;10.10;;;;;;;19.45;96.50;98275.02;107182;1275;25350;-79
2023/08/20 03:15:55;;;;;;;11.90;10.70;;;;;;;19.49;96.90;98278.02;107185;1253;23000;-79
2023/08/20 03:18:23;;;;;;;10.80;9.70;;;;;;;19.52;96.90;98276.69;107275;1275;22541;-79
2023/08/20 03:20:51;;;;;;;11.40;10.30;;;;;;;19.58;97.15;98279.52;107266;1275;25631;-79
2023/08/20 03:23:19;;;;;;;11.80;10.60;;;;;;;19.62;96.80;98284.06;107359;1275;23108;-80
2023/08/20 03:25:47;;;;;;;11.00;9.90;;;;;;;19.55;96.43;98283.11;107347;1275;25475;-80
2023/08/20 03:28:17;;;;;;;11.80;10.70;;;;;;;19.51;96.90;98286.05;107333;1275;23960;-80
2023/08/20 03:30:45;;;;;;;11.90;10.70;;;;;;;19.48;97.31;98284.45;107226;1275;22547;-81
2023/08/20 03:33:16;;;;;;;13.50;10.70;;;;;;;19.43;97.13;98286.77;107403;1275;22576;-81
2023/08/20 03:35:46;;;;;;;12.20;11.20;;;;;;;19.42;97.13;98289.83;107422;1275;25479;-80
2023/08/20 03:38:14;;;;;;;12.10;10.90;;;;;;;19.37;97.12;98290.72;107292;1275;22556;-80
2023/08/20 03:40:42;;;;;;;12.00;10.70;;;;;;;19.38;97.42;98295.67;107632;1269;22635;-80
2023/08/20 03:43:10;;;;;;;12.80;11.20;;;;;;;19.41;97.64;98295.52;107218;1275;24083;-81
2023/08/20 03:45:38;;;;;;;11.70;10.70;;;;;;;19.43;97.72;98296.58;107306;1275;22517;-81
2023/08/20 03:48:07;;;;;;;11.50;10.50;;;;;;;19.47;97.89;98297.46;107317;1253;22623;-81
2023/08/20 03:50:36;;;;;;;13.50;10.90;;;;;;;19.52;97.86;98300.66;107325;1275;22675;-80
2023/08/20 03:53:04;;;;;;;14.90;10.30;;;;;;;19.55;97.73;98303.80;107287;1275;25095;-80
2023/08/20 03:55:32;;;;;;;13.60;11.20;;;;;;;19.54;97.83;98305.48;107249;1275;26596;-81
2023/08/20 03:58:00;;;;;;;12.10;10.90;;;;;;;19.53;98.10;98302.26;107246;1275;24180;-85
2023/08/20 04:00:28;;;;;;;13.30;11.90;;;;;;;19.48;97.93;98305.41;107312;1275;25304;-78
2023/08/20 04:02:56;;;;;;;12.60;11.40;;;;;;;19.34;97.99;98308.83;107273;1275;22538;-78
2023/08/20 04:05:24;;;;;;;13.90;12.40;;;;;;;19.19;98.21;98308.54;107309;1275;25289;-80
2023/08/20 04:07:52;;;;;;;12.80;11.50;;;;;;;19.04;98.78;98309.59;107303;1275;22549;-80
2023/08/20 04:10:21;;;;;;;12.40;11.20;;;;;;;18.90;99.57;98310.95;107407;1275;22802;-80
2023/08/20 04:12:49;;;;;;;15.90;11.90;;;;;;;18.77;100.00;98306.64;107414;1275;22563;-81
2023/08/20 04:15:17;;;;;;;12.60;11.40;;;;;;;18.65;100.00;98310.08;107396;1275;22583;-79
2023/08/20 04:17:45;;;;;;;12.50;11.40;;;;;;;18.54;100.00;98309.42;107106;1275;25611;-79
2023/08/20 04:20:13;;;;;;;13.50;12.00;;;;;;;18.46;100.00;98310.55;107189;1275;22651;-80
2023/08/20 04:22:42;;;;;;;13.70;12.40;;;;;;;18.42;100.00;98312.60;107336;1275;22673;-79
2023/08/20 04:25:10;;;;;;;13.90;12.50;;;;;;;18.38;100.00;98311.09;107285;1275;23238;-79
2023/08/20 04:27:39;;;;;;;14.10;12.60;;;;;;;18.37;100.00;98309.32;107154;1275;25244;-80
2023/08/20 04:30:08;;;;;;;13.00;11.80;;;;;;;18.36;100.00;98306.04;107146;1275;22634;-81
2023/08/20 04:32:36;;;;;;;15.30;13.40;;;;;;;18.35;100.00;98303.92;107137;1275;24249;-80
2023/08/20 04:35:04;;;;;;;13.90;12.50;;;;;;;18.36;100.00;98306.89;107188;1275;22619;-79
2023/08/20 04:37:33;;;;;;;14.90;13.20;;;;;;;18.38;100.00;98306.09;107239;1274;22633;-79
2023/08/20 04:40:04;;;;;;;14.30;12.80;;;;;;;18.41;100.00;98305.70;107054;1275;25325;-79
2023/08/20 04:42:32;;;;;;;15.60;12.90;;;;;;;18.44;100.00;98305.79;107146;1275;23237;-81
2023/08/20 04:45:01;;;;;;;14.40;13.20;;;;;;;18.51;100.00;98309.85;107191;1275;24369;-80
2023/08/20 04:47:30;;;;;;;14.00;12.70;;;;;;;18.54;100.00;98308.88;107222;1275;22586;-79
2023/08/20 04:49:58;;;;;;;14.40;13.20;;;;;;;18.60;100.00;98309.05;107239;1275;22573;-80
2023/08/20 04:52:26;;;;;;;15.30;13.40;;;;;;;18.69;100.00;98308.61;107299;1275;24103;-79
2023/08/20 04:54:55;;;;;;;15.20;13.80;;;;;;;18.78;100.00;98311.22;107223;1275;25285;-79
2023/08/20 04:57:23;;;;;;;13.80;12.60;;;;;;;18.89;100.00;98310.29;107054;1275;23019;-80
2023/08/20 04:59:51;;;;;;;12.90;11.80;;;;;;;19.01;100.00;98307.47;107338;1265;24420;-80
2023/08/20 05:02:25;;;;;;;14.10;12.70;;;;;;;19.12;100.00;98308.89;107149;1275;22777;-80
2023/08/20 05:04:59;;;;;;;14.50;13.10;;;;;;;19.18;100.00;98299.92;107374;1275;25329;-81
2023/08/20 05:07:28;;;;;;;15.20;13.70;;;;;;;19.30;100.00;98302.69;107254;1274;22536;-80
2023/08/20 05:09:56;;;;;;;14.50;13.10;;;;;;;19.44;100.00;98303.41;107262;1275;22521;-80
2023/08/20 05:12:25;;;;;;;15.60;13.90;;;;;;;19.59;100.00;98302.83;107334;1275;22591;-81
2023/08/20 05:14:52;;;;;;;14.30;12.90;;;;;;;19.75;100.00;98307.96;107167;1275;23381;-80
2023/08/20 05:17:22;;;;;;;14.60;13.30;;;;;;;19.90;100.00;98308.05;107319;1275;23246;-80
2023/08/20 05:19:50;;;;;;;15.30;13.40;;;;;;;20.02;100.00;98310.47;107403;1275;24375;-81
2023/08/20 05:22:18;;;;;;;15.70;14.30;;;;;;;20.15;100.00;98314.09;107213;1275;22642;-80
2023/08/20 05:24:46;;;;;;;16.40;14.80;;;;;;;20.28;100.00;98319.20;107172;1275;22616;-79
2023/08/20 05:27:19;;;;;;;16.60;14.50;;;;;;;20.43;100.00;98317.85;107383;1275;25447;-80
2023/08/20 05:29:50;;;;;;;15.80;14.00;;;;;;;20.60;100.00;98321.27;107445;1275;22517;-79
2023/08/20 05:32:18;;;;;;;16.60;14.90;;;;;;;20.75;100.00;98324.50;107350;1275;25281;-79
2023/08/20 05:34:47;;;;;;;16.60;15.00;;;;;;;20.88;100.00;98326.54;107407;1275;22733;-80
2023/08/20 05:37:15;;;;;;;16.40;14.70;;;;;;;21.04;100.00;98326.35;107181;1275;23908;-80
2023/08/20 05:39:44;;;;;;;16.50;14.90;;;;;;;21.20;100.00;98328.25;107281;1275;22633;-80
2023/08/20 05:42:13;;;;;;;15.50;13.90;;;;;;;21.35;100.00;98326.47;107273;1275;23581;-80
2023/08/20 05:44:45;;;;;;;17.30;15.60;;;;;;;21.46;100.00;98330.86;107414;1275;22633;-80
2023/08/20 05:47:16;;;;;;;16.50;14.90;;;;;;;21.58;100.00;98329.73;107422;1275;22791;-80
2023/08/20 05:49:44;;;;;;;16.80;15.20;;;;;;;21.68;100.00;98329.91;107348;1275;22633;-80
2023/08/20 05:52:12;;;;;;;16.30;14.80;;;;;;;21.79;100.00;98334.66;107220;1253;24382;-81
2023/08/20 05:54:41;;;;;;;17.00;14.20;;;;;;;21.90;100.00;98333.32;107346;1275;22727;-80
2023/08/20 05:57:10;;;;;;;14.40;13.00;;;;;;;22.01;100.00;98335.08;107295;1275;22529;-81
2023/08/20 05:59:38;;;;;;;15.90;13.30;;;;;;;22.07;100.00;98336.05;107253;1275;22531;-81
2023/08/20 06:02:06;;;;;;;14.80;13.30;;;;;;;22.16;100.00;98339.91;107323;1275;22520;-80
2023/08/20 06:04:35;;;;;;;15.90;14.20;;;;;;;22.23;100.00;98339.83;107322;1275;22596;-80
2023/08/20 06:07:03;;;;;;;15.20;13.90;;;;;;;22.27;100.00;98345.44;107436;1275;22567;-80
2023/08/20 06:09:31;;;;;;;15.00;13.60;;;;;;;22.34;100.00;98350.36;107409;1275;22524;-80
2023/08/20 06:11:59;;;;;;;14.70;13.10;;;;;;;22.41;100.00;98350.96;107143;1275;25355;-80
2023/08/20 06:14:27;;;;;;;15.20;13.70;;;;;;;22.46;100.00;98349.55;107313;1275;25291;-80
2023/08/20 06:16:55;;;;;;;14.60;13.20;;;;;;;22.54;100.00;98352.89;107334;1275;24085;-80
2023/08/20 06:19:24;;;;;;;14.60;13.10;;;;;;;22.68;100.00;98353.20;107257;1275;22540;-79
2023/08/20 06:21:52;;;;;;;14.90;13.40;;;;;;;22.77;99.68;98354.69;107206;1252;24374;-80
2023/08/20 06:24:20;;;;;;;14.30;12.70;;;;;;;22.83;100.00;98353.29;107250;1275;22633;-80
2023/08/20 06:26:48;;;;;;;14.10;12.70;;;;;;;22.90;100.00;98352.61;107313;1275;22651;-81
2023/08/20 06:29:16;;;;;;;15.80;14.40;;;;;;;22.97;99.83;98351.42;107370;1275;24064;-80
2023/08/20 06:31:44;;;;;;;15.20;13.70;;;;;;;23.02;99.58;98354.55;107381;1275;22791;-80
2023/08/20 06:34:12;;;;;;;14.50;12.90;;;;;;;23.08;99.12;98356.38;107304;1275;22528;-79
2023/08/20 06:36:40;;;;;;;14.00;12.50;;;;;;;23.21;99.71;98351.92;107383;1275;24255;-80
2023/08/20 06:39:08;;;;;;;14.40;12.90;;;;;;;23.33;99.41;98356.19;107356;1275;22557;-79
2023/08/20 06:41:37;;;;;;;14.30;13.00;;;;;;;23.46;98.62;98357.34;107429;1275;25342;-80
2023/08/20 06:44:08;;;;;;;14.60;13.20;;;;;;;23.56;98.32;98357.98;107372;1275;22534;-80
2023/08/20 06:46:36;;;;;;;16.20;13.00;;;;;;;23.63;98.10;98366.16;107347;1275;24062;-80
2023/08/20 06:49:04;;;;;;;14.70;13.10;;;;;;;23.68;96.79;98364.14;107282;1275;22533;-78
2023/08/20 06:51:32;;;;;;;17.50;13.10;;;;;;;23.73;96.84;98363.15;107272;1275;22645;-79
2023/08/20 06:54:01;;;;;;;14.70;12.90;;;;;;;23.80;96.24;98368.35;107302;1275;22783;-80
2023/08/20 06:56:29;;;;;;;21.40;13.50;;;;;;;23.88;95.97;98367.49;107352;1275;25496;-79
2023/08/20 06:58:57;;;;;;;13.70;12.40;;;;;;;23.95;95.46;98370.33;107350;1272;25444;-81
2023/08/20 07:01:25;;;;;;;13.60;12.30;;;;;;;24.03;95.77;98367.11;107269;1275;22641;-81
2023/08/20 07:03:53;;;;;;;14.30;12.80;;;;;;;24.14;95.19;98369.89;107266;1274;22640;-81
2023/08/20 07:06:21;;;;;;;13.10;11.90;;;;;;;24.17;93.43;98366.71;107160;1268;22533;-80
2023/08/20 07:08:50;;;;;;;17.50;12.70;;;;;;;24.19;92.89;98367.67;107268;1272;22670;-80
2023/08/20 07:11:18;;;;;;;14.60;12.50;;;;;;;24.23;93.47;98368.89;107190;1252;24346;-79
2023/08/20 07:13:46;;;;;;;13.00;11.70;;;;;;;24.33;93.49;98372.38;107211;1275;22746;-79
2023/08/20 07:16:14;;;;;;;13.60;12.30;;;;;;;24.42;91.83;98371.77;107242;1256;23343;-80
2023/08/20 07:18:42;;;;;;;12.50;11.30;;;;;;;24.48;91.70;98375.77;107285;1275;22801;-78
2023/08/20 07:21:10;;;;;;;12.20;11.00;;;;;;;24.58;91.27;98374.52;106802;1276;24279;-79
2023/08/20 07:23:38;;;;;;;12.40;11.10;;;;;;;24.67;91.48;98370.98;107278;1268;22755;-78
2023/08/20 07:26:12;;;;;;;13.10;11.40;;;;;;;24.77;91.09;98367.83;107299;1268;22533;-78
2023/08/20 07:28:59;;;;;;;;;;;;;;;24.86;89.60;98366.88;107009;1275;22506;-78
2023/08/20 07:31:31;;;;;;;13.90;12.50;;;;;;;24.92;89.65;98364.23;107317;1275;22607;-80
2023/08/20 07:34:02;;;;;;;11.80;10.70;;;;;;;25.02;90.14;98363.53;107318;1272;25326;-79
2023/08/20 07:36:33;;;;;;;12.70;10.80;;;;;;;25.17;90.08;98362.79;107406;1275;22524;-79
2023/08/20 07:39:02;;;;;;;13.30;11.30;;;;;;;25.31;89.69;98360.67;107427;1269;25510;-80
2023/08/20 07:41:30;;;;;;;13.30;11.20;;;;;;;25.47;89.85;98358.68;107405;1275;22538;-80
2023/08/20 07:43:58;;;;;;;13.90;11.20;;;;;;;25.62;89.33;98360.42;107353;1270;22649;-80
2023/08/20 07:46:26;;;;;;;15.80;10.80;;;;;;;25.78;89.30;98358.67;107254;1272;22712;-79
2023/08/20 07:48:54;;;;;;;14.30;11.10;;;;;;;25.92;89.09;98359.46;106832;1254;25596;-80
2023/08/20 07:51:22;;;;;;;12.90;11.60;;;;;;;26.06;88.39;98370.23;107250;1275;22652;-80
2023/08/20 07:53:50;;;;;;;13.70;11.90;;;;;;;26.18;88.03;98368.91;107386;1268;22544;-81
2023/08/20 07:56:18;;;;;;;13.70;11.90;;;;;;;26.21;85.63;98372.08;107266;1271;23238;-80
2023/08/20 07:58:46;;;;;;;13.00;11.30;;;;;;;26.24;86.03;98371.45;107313;1272;25508;-80
2023/08/20 08:01:14;;;;;;;15.10;11.90;;;;;;;26.29;85.58;98368.23;107292;1272;24277;-80
2023/08/20 08:03:43;;;;;;;11.90;10.90;;;;;;;26.39;85.24;98370.05;107346;1254;22601;-81
2023/08/20 08:06:11;;;;;;;12.80;11.50;;;;;;;26.49;85.60;98372.77;107175;1273;25348;-79
2023/08/20 08:08:44;;;;;;;13.30;11.60;;;;;;;26.60;84.95;98372.07;107344;1273;23274;-80
2023/08/20 08:11:12;;;;;;;16.50;12.00;;;;;;;26.64;82.73;98375.55;107434;1269;24246;-80
2023/08/20 08:13:40;;;;;;;12.70;11.20;;;;;;;26.65;81.69;98378.48;107327;1273;25376;-81
2023/08/20 08:16:08;;;;;;;14.00;12.60;;;;;;;26.68;81.30;98375.87;107342;1275;22635;-81
2023/08/20 08:18:36;;;;;;;12.50;11.20;;;;;;;26.66;81.19;98378.02;107289;1256;22531;-80
2023/08/20 08:21:07;;;;;;;15.30;11.40;;;;;;;26.72;80.99;98376.73;107274;1256;23234;-80
2023/08/20 08:23:35;;;;;;;15.50;10.90;;;;;;;26.77;78.72;98375.79;107262;1275;22522;-80
2023/08/20 08:26:03;;;;;;;12.80;11.10;;;;;;;26.82;78.72;98379.05;107323;1275;24261;-80
2023/08/20 08:28:31;;;;;;;11.90;10.70;;;;;;;26.86;78.97;98373.89;107381;1271;24247;-79
2023/08/20 08:30:59;;;;;;;12.10;10.20;;;;;;;26.96;78.25;98379.81;107221;1275;25338;-79
2023/08/20 08:33:31;;;;;;;11.50;10.40;;;;;;;27.01;78.35;98379.26;107339;1269;24449;-79
2023/08/20 08:35:59;;;;;;;11.60;10.20;;;;;;;27.11;79.01;98378.06;106949;1270;25321;-80
2023/08/20 08:38:27;;;;;;;14.80;11.50;;;;;;;27.24;76.09;98375.06;106907;1276;22542;-80
2023/08/20 08:40:56;;;;;;;12.40;11.20;;;;;;;27.28;75.44;98380.03;107269;1273;24486;-79
2023/08/20 08:43:26;;;;;;;12.70;11.10;;;;;;;27.31;74.22;98375.60;107409;1272;22640;-79
2023/08/20 08:45:56;;;;;;;12.80;11.50;;;;;;;27.34;74.14;98378.11;107132;1275;22533;-79
2023/08/20 08:48:25;;;;;;;12.40;11.20;;;;;;;27.42;75.42;98380.80;107226;1269;24232;-79
2023/08/20 08:50:53;;;;;;;12.00;10.90;;;;;;;27.55;75.28;98380.52;107327;1275;24355;-79
2023/08/20 08:53:24;;;;;;;12.10;10.80;;;;;;;27.67;75.39;98378.27;107315;1275;22561;-78
2023/08/20 08:55:52;;;;;;;13.40;10.90;;;;;;;27.81;74.40;98376.40;107158;1275;22537;-78
2023/08/20 08:58:21;;;;;;;12.10;10.80;;;;;;;27.86;73.98;98382.65;106926;1275;22533;-78
2023/08/20 09:00:49;;;;;;;11.70;10.60;;;;;;;27.98;74.04;98382.58;107353;1275;22537;-77
2023/08/20 09:03:17;;;;;;;11.50;10.40;;;;;;;28.04;71.72;98386.89;107039;1273;22731;-78
2023/08/20 09:05:47;;;;;;;13.90;9.80;;;;;;;27.99;70.28;98386.14;107016;1269;22566;-78
2023/08/20 09:08:28;;;;;;;12.60;10.50;;;;;;;27.98;70.45;98389.23;106793;1275;23646;-78
2023/08/20 09:10:59;;;;;;;12.30;10.00;;;;;;;27.97;70.38;98390.34;106840;1276;22522;-77
2023/08/20 09:13:36;;;;;;;13.70;10.30;;;;;;;28.08;71.76;98389.58;107306;1275;22743;-78
2023/08/20 09:16:12;;;;;;;10.60;9.40;;;;;;;28.23;70.53;98384.90;107079;1275;22828;-78
2023/08/20 09:18:43;;;;;;;10.40;9.30;;;;;;;28.36;70.90;98387.04;106996;1265;22520;-78
2023/08/20 09:21:13;;;;;;;11.20;9.70;;;;;;;28.48;70.66;98381.92;106995;1275;25616;-79
2023/08/20 09:23:45;;;;;;;10.50;9.50;;;;;;;28.67;71.30;98379.16;107242;1275;25352;-78
2023/08/20 09:26:14;;;;;;;10.50;9.40;;;;;;;28.81;69.37;98381.91;106962;1267;24438;-78
2023/08/20 09:28:47;;;;;;;10.00;9.10;;;;;;;28.90;68.63;98384.27;106966;1275;22551;-78
2023/08/20 09:31:15;;;;;;;11.50;9.50;;;;;;;28.89;68.25;98383.65;106994;1275;22541;-78
2023/08/20 09:33:53;;;;;;;14.80;8.90;;;;;;;28.94;66.74;98382.19;106938;1275;25491;-77
2023/08/20 09:36:35;;;;;;;10.20;9.20;;;;;;;28.94;66.71;98387.02;106794;1267;24248;-78
2023/08/20 09:39:04;;;;;;;11.00;8.80;;;;;;;28.94;65.34;98385.11;107101;1275;24199;-79
2023/08/20 09:41:35;;;;;;;10.20;9.20;;;;;;;28.99;67.10;98385.63;107308;1275;22651;-78
2023/08/20 09:44:05;;;;;;;11.20;8.30;;;;;;;29.17;65.21;98390.88;107656;1266;24213;-78
2023/08/20 09:46:35;;;;;;;10.70;9.70;;;;;;;29.20;64.17;98392.84;107877;1275;22672;-77
2023/08/20 09:49:05;;;;;;;9.70;8.70;;;;;;;29.16;65.54;98386.13;108001;1275;22525;-78
2023/08/20 09:51:35;;;;;;;10.90;9.00;;;;;;;29.10;64.22;98383.50;107711;1275;22651;-78
2023/08/20 09:54:16;;;;;;;10.20;8.80;;;;;;;28.89;63.67;98382.06;107368;1275;22547;-78
2023/08/20 09:56:49;;;;;;;13.30;8.30;;;;;;;28.75;64.70;98376.16;107402;1267;24239;-78
2023/08/20 09:59:17;;;;;;;8.90;8.00;;;;;;;28.90;62.95;98379.37;107404;1276;22602;-79
2023/08/20 10:01:47;;;;;;;11.20;9.00;;;;;;;28.88;61.71;98381.05;107183;1275;25318;-77
2023/08/20 10:04:18;;;;;;;9.60;7.90;;;;;;;28.95;62.57;98375.84;107390;1275;22650;-79
2023/08/20 10:06:46;;;;;;;9.70;8.50;;;;;;;29.17;61.10;98372.40;107490;1269;23288;-78
2023/08/20 10:09:17;;;;;;;10.20;8.70;;;;;;;29.33;60.95;98370.17;107181;1276;22535;-79
2023/08/20 10:11:46;;;;;;;12.10;8.20;;;;;;;29.50;61.08;98371.90;107208;1275;22640;-77
2023/08/20 10:14:15;;;;;;;8.60;7.40;;;;;;;29.63;60.87;98371.13;107398;1275;24287;-79
2023/08/20 10:16:43;;;;;;;9.70;7.30;;;;;;;29.69;57.66;98374.09;107174;1275;22791;-79
2023/08/20 10:19:11;;;;;;;8.50;7.50;;;;;;;29.71;57.23;98373.50;107357;1275;22640;-79
2023/08/20 10:21:46;;;;;;;8.00;7.20;;;;;;;29.81;57.23;98370.52;107255;1267;22717;-79
2023/08/20 10:24:20;;;;;;;9.20;8.30;;;;;;;29.84;57.72;98362.86;107240;1275;22579;-80
2023/08/20 10:27:08;;;;;;;11.10;8.10;;;;;;;29.71;56.53;98365.02;107239;1269;25332;-80
2023/08/20 10:29:37;;;;;;;9.30;7.30;;;;;;;29.67;56.71;98362.77;107455;1260;25411;-80
2023/08/20 10:32:10;;;;;;;10.20;7.70;;;;;;;29.73;57.13;98360.06;107424;1275;22524;-80
2023/08/20 10:34:43;;;;;;;10.10;7.50;;;;;;;29.92;57.32;98356.73;107349;1275;25288;-80
2023/08/20 10:37:15;;;;;;;16.80;8.00;;;;;;;30.15;56.88;98357.29;107378;1275;23419;-80
2023/08/20 10:39:54;;;;;;;10.30;7.30;;;;;;;30.26;55.65;98357.55;107382;1276;24249;-79
2023/08/20 10:42:26;;;;;;;10.10;8.00;;;;;;;30.19;55.11;98355.41;107229;1276;24474;-80
2023/08/20 10:45:05;;;;;;;10.40;7.30;;;;;;;30.10;54.61;98349.17;107860;1269;22529;-79
2023/08/20 10:47:41;;;;;;;13.30;8.20;;;;;;;30.03;54.65;98350.38;106964;1272;23358;-80
2023/08/20 10:50:16;;;;;;;9.70;7.80;;;;;;;29.99;55.41;98349.88;107529;1273;22540;-79
2023/08/20 10:52:49;;;;;;;11.90;7.20;;;;;;;30.15;54.80;98346.96;107450;1275;24108;-80
2023/08/20 10:55:22;;;;;;;11.80;6.90;;;;;;;30.29;53.92;98350.52;107480;1275;22627;-80
2023/08/20 10:57:59;;;;;;;10.20;7.00;;;;;;;30.34;52.61;98342.50;107721;1270;22775;-81
2023/08/20 11:00:28;;;;;;;11.30;7.50;;;;;;;30.12;52.22;98343.44;107779;1268;25357;-82
2023/08/20 11:02:58;;;;;;;8.80;7.90;;;;;;;29.92;53.25;98343.78;107617;1275;25455;-80
2023/08/20 11:05:27;;;;;;;9.30;6.80;;;;;;;30.04;53.16;98344.34;107336;1275;25223;-80
2023/08/20 11:07:55;;;;;;;9.10;6.80;;;;;;;30.24;53.24;98337.42;107525;1275;22588;-79
2023/08/20 11:10:24;;;;;;;12.50;7.20;;;;;;;30.46;51.57;98337.16;107440;1275;24119;-80
2023/08/20 11:12:52;;;;;;;8.80;7.80;;;;;;;30.61;51.33;98342.86;107030;1275;25479;-80
2023/08/20 11:15:21;;;;;;;10.60;7.10;;;;;;;30.72;50.76;98341.34;107093;1253;22652;-78
2023/08/20 11:17:49;;;;;;;9.50;6.70;;;;;;;30.91;50.83;98343.17;106923;1273;22525;-79
2023/08/20 11:20:20;;;;;;;8.50;7.30;;;;;;;31.06;50.31;98341.33;106733;1270;25281;-80
2023/08/20 11:22:48;;;;;;;8.50;7.20;;;;;;;31.18;49.71;98345.48;107374;1272;23338;-81